Time;durP1;ratioP1;P1;durP2;ratioP2;P2;SDS_P1;SDS_P2;PMS_P1;PMS_P2;Temp;Humidity;BMP_temperature;BMP_pressure;BME280_temperature;BME280_humidity;BME280_pressure;Samples;Min_cycle;Max_cycle;Signal;HPM_P1;HPM_P2
2022/03/01 00:01:17;;;;;;;21.58;13.38;;;2.50;99.90;;;;;;4811372;29;20816;-87
2022/03/01 00:03:43;;;;;;;22.65;14.10;;;1.60;99.90;;;;;;4842399;29;20069;-87
2022/03/01 00:06:08;;;;;;;19.95;13.65;;;3.00;99.90;;;;;;4840566;29;20054;-88
2022/03/01 00:08:34;;;;;;;19.38;12.95;;;3.00;99.90;;;;;;4842477;29;20057;-89
2022/03/01 00:11:00;;;;;;;20.15;13.60;;;2.20;99.90;;;;;;4840815;29;20046;-88
2022/03/01 00:13:26;;;;;;;20.42;13.10;;;3.10;99.90;;;;;;4841284;29;20054;-89
2022/03/01 00:15:51;;;;;;;20.85;14.00;;;2.60;99.90;;;;;;4841888;29;20097;-85
2022/03/01 00:18:17;;;;;;;20.30;12.65;;;1.30;99.90;;;;;;4840514;29;20137;-88
2022/03/01 00:20:43;;;;;;;20.08;13.82;;;1.30;99.90;;;;;;4840707;29;20056;-88
2022/03/01 00:23:08;;;;;;;19.00;12.88;;;1.30;99.90;;;;;;4840719;29;20068;-88
2022/03/01 00:25:34;;;;;;;19.60;13.45;;;1.30;99.90;;;;;;4856305;29;20491;-88
2022/03/01 00:28:00;;;;;;;20.10;13.27;;;1.20;99.90;;;;;;4840687;29;20407;-88
2022/03/01 00:30:25;;;;;;;24.70;13.82;;;1.20;99.90;;;;;;4841069;29;20046;-87
2022/03/01 00:32:51;;;;;;;22.27;13.38;;;1.20;99.90;;;;;;4841964;29;20058;-87
2022/03/01 00:35:18;;;;;;;18.88;12.93;;;1.10;99.90;;;;;;4840652;29;20137;-87
2022/03/01 00:37:44;;;;;;;21.35;13.32;;;1.10;99.90;;;;;;4842431;29;20046;-88
2022/03/01 00:40:10;;;;;;;21.13;13.77;;;1.00;99.90;;;;;;4856113;29;20582;-87
2022/03/01 00:42:36;;;;;;;19.25;13.68;;;1.00;99.90;;;;;;4810770;29;20096;-87
2022/03/01 00:45:01;;;;;;;19.27;13.10;;;1.10;99.90;;;;;;4825434;29;20089;-88
2022/03/01 00:47:27;;;;;;;20.15;13.90;;;2.20;99.90;;;;;;4840597;29;20058;-88
2022/03/01 00:49:53;;;;;;;21.30;13.73;;;0.90;99.90;;;;;;4840094;29;20076;-87
2022/03/01 00:52:18;;;;;;;22.35;13.65;;;0.90;99.90;;;;;;4840159;29;20061;-87
2022/03/01 00:54:44;;;;;;;22.20;13.40;;;0.90;99.90;;;;;;4842252;29;20076;-87
2022/03/01 00:57:10;;;;;;;19.25;13.55;;;1.60;99.90;;;;;;4855266;29;20403;-87
2022/03/01 00:59:35;;;;;;;19.85;13.57;;;2.50;99.90;;;;;;4841391;29;20064;-87
2022/03/01 01:02:01;;;;;;;22.40;14.23;;;0.80;99.90;;;;;;4855211;29;20380;-88
2022/03/01 01:04:27;;;;;;;19.80;12.93;;;2.30;99.90;;;;;;4840445;29;20061;-88
2022/03/01 01:06:52;;;;;;;21.42;14.13;;;0.80;99.90;;;;;;4841549;29;20439;-87
2022/03/01 01:09:18;;;;;;;24.45;14.48;;;0.70;99.90;;;;;;4840146;29;20054;-88
2022/03/01 01:11:44;;;;;;;22.77;13.80;;;1.70;99.90;;;;;;4825402;29;20058;-89
2022/03/01 01:14:09;;;;;;;20.63;13.50;;;0.70;99.90;;;;;;4855335;29;20057;-89
2022/03/01 01:16:35;;;;;;;22.33;13.93;;;0.90;99.90;;;;;;4839959;29;20091;-89
2022/03/01 01:19:01;;;;;;;19.63;12.80;;;1.70;99.90;;;;;;4842606;29;20061;-88
2022/03/01 01:22:39;;;;;;;21.73;14.10;;;1.60;99.90;;;;;;4843969;29;20046;-88
2022/03/01 01:24:12;;;;;;;22.10;13.02;;;0.60;99.90;;;;;;4858330;29;20096;-88
2022/03/01 01:26:37;;;;;;;21.13;13.15;;;0.50;99.90;;;;;;4844238;29;20085;-88
2022/03/01 01:29:03;;;;;;;22.10;14.30;;;0.60;99.90;;;;;;4845453;29;20084;-89
2022/03/01 01:31:29;;;;;;;20.73;12.95;;;0.60;99.90;;;;;;4832227;29;20384;-88
2022/03/01 01:33:54;;;;;;;19.73;12.90;;;0.60;99.90;;;;;;4845019;29;20133;-88
2022/03/01 01:36:20;;;;;;;25.38;13.80;;;0.60;99.90;;;;;;4827681;29;20101;-88
2022/03/01 01:38:46;;;;;;;20.48;13.20;;;0.60;99.90;;;;;;4843615;29;20054;-88
2022/03/01 01:41:11;;;;;;;21.90;13.00;;;0.60;99.90;;;;;;4858555;29;20824;-88
2022/03/01 01:43:37;;;;;;;23.17;13.93;;;0.50;99.90;;;;;;4845996;29;20495;-88
2022/03/01 01:46:03;;;;;;;21.98;13.38;;;0.50;99.90;;;;;;4858300;29;20365;-88
2022/03/01 01:48:28;;;;;;;21.88;13.68;;;1.30;99.90;;;;;;4843130;29;20407;-88
2022/03/01 01:50:54;;;;;;;21.52;13.45;;;0.60;99.90;;;;;;4843645;29;20058;-88
2022/03/01 01:53:19;;;;;;;21.05;13.18;;;0.80;99.90;;;;;;4843305;29;20403;-89
2022/03/01 01:55:45;;;;;;;21.13;13.98;;;1.00;99.90;;;;;;4847585;29;20105;-88
2022/03/01 01:58:11;;;;;;;20.17;13.55;;;0.80;99.90;;;;;;4812844;29;20053;-89
2022/03/01 02:00:37;;;;;;;21.80;13.68;;;1.30;99.90;;;;;;4827718;29;20050;-88
2022/03/01 02:03:02;;;;;;;22.88;14.05;;;0.50;99.90;;;;;;4843877;29;20061;-86
2022/03/01 02:05:28;;;;;;;20.10;13.57;;;1.60;99.90;;;;;;4843328;29;20054;-89
2022/03/01 02:07:55;;;;;;;21.50;15.07;;;0.60;99.90;;;;;;4830928;29;20058;-88
2022/03/01 02:10:21;;;;;;;19.85;13.77;;;0.70;99.90;;;;;;4854727;29;20062;-88
2022/03/01 02:12:47;;;;;;;21.27;13.90;;;1.30;99.90;;;;;;4845654;29;20062;-87
2022/03/01 02:15:14;;;;;;;21.10;14.25;;;2.10;99.90;;;;;;4828406;29;20062;-88
2022/03/01 02:17:40;;;;;;;22.52;13.90;;;0.40;99.90;;;;;;4866031;29;20110;-88
2022/03/01 02:20:09;;;;;;;21.90;13.80;;;0.40;99.90;;;;;;4844117;29;20057;-87
2022/03/01 02:22:34;;;;;;;22.60;13.63;;;0.40;99.90;;;;;;4842957;29;20058;-88
2022/03/01 02:25:00;;;;;;;20.63;13.57;;;0.40;99.90;;;;;;4858457;29;20046;-89
2022/03/01 02:27:26;;;;;;;20.20;13.52;;;1.30;99.90;;;;;;4843983;29;20559;-88
2022/03/01 02:29:51;;;;;;;20.73;14.35;;;0.40;99.90;;;;;;4857763;29;20069;-88
2022/03/01 02:32:17;;;;;;;20.70;13.57;;;1.40;99.90;;;;;;4843573;29;20058;-88
2022/03/01 02:34:43;;;;;;;20.38;13.63;;;0.40;99.90;;;;;;4844160;29;20097;-88
2022/03/01 02:37:08;;;;;;;23.90;14.45;;;0.40;99.90;;;;;;4827239;29;20046;-89
2022/03/01 02:39:34;;;;;;;24.33;14.70;;;1.00;99.90;;;;;;4827608;29;20057;-88
2022/03/01 02:42:00;;;;;;;23.40;15.05;;;0.90;99.90;;;;;;4827585;29;20154;-87
2022/03/01 02:44:25;;;;;;;22.17;14.40;;;1.40;99.90;;;;;;4827060;29;20046;-88
2022/03/01 02:46:51;;;;;;;22.42;14.55;;;0.60;99.90;;;;;;4843795;29;20050;-89
2022/03/01 02:49:17;;;;;;;21.13;14.07;;;0.60;99.90;;;;;;4857475;29;20145;-89
2022/03/01 02:51:42;;;;;;;22.33;14.70;;;1.70;99.90;;;;;;4857693;29;20127;-90
2022/03/01 02:54:08;;;;;;;22.23;14.07;;;1.60;99.90;;;;;;4829441;29;20056;-88
2022/03/01 02:56:34;;;;;;;24.92;14.32;;;0.80;99.90;;;;;;4849754;29;20061;-89
2022/03/01 02:59:00;;;;;;;24.25;15.05;;;2.00;99.90;;;;;;4827444;29;20132;-88
2022/03/01 03:01:26;;;;;;;22.55;14.82;;;1.10;99.90;;;;;;4826582;29;20050;-88
2022/03/01 03:03:52;;;;;;;23.73;14.77;;;1.30;99.90;;;;;;4842136;29;20124;-87
2022/03/01 03:06:18;;;;;;;23.83;15.30;;;0.80;99.90;;;;;;4842152;29;20134;-88
2022/03/01 03:08:43;;;;;;;24.77;13.95;;;0.80;99.90;;;;;;4841902;29;20121;-88
2022/03/01 03:11:09;;;;;;;22.65;14.52;;;1.00;99.90;;;;;;4857499;29;20093;-85
2022/03/01 03:13:35;;;;;;;20.73;13.77;;;1.10;99.90;;;;;;4841924;29;20451;-88
2022/03/01 03:16:00;;;;;;;21.63;13.75;;;2.50;99.90;;;;;;4826733;29;20103;-88
2022/03/01 03:18:26;;;;;;;22.15;14.65;;;2.20;99.90;;;;;;4841500;29;20090;-88
2022/03/01 03:20:52;;;;;;;24.77;15.38;;;1.00;99.90;;;;;;4841816;29;20444;-87
2022/03/01 03:23:17;;;;;;;22.23;15.13;;;1.50;99.90;;;;;;4826096;29;20397;-87
2022/03/01 03:25:43;;;;;;;23.58;15.18;;;1.00;99.90;;;;;;4826473;29;20061;-88
2022/03/01 03:28:09;;;;;;;26.45;15.25;;;2.30;99.90;;;;;;4826299;29;20100;-84
2022/03/01 03:30:34;;;;;;;26.17;15.15;;;2.00;99.90;;;;;;4840940;29;20479;-86
2022/03/01 03:33:00;;;;;;;23.20;14.90;;;2.10;99.90;;;;;;4841968;29;20444;-88
2022/03/01 03:35:26;;;;;;;25.00;15.85;;;0.90;99.90;;;;;;4841696;29;20057;-87
2022/03/01 03:37:51;;;;;;;24.25;14.65;;;0.90;99.90;;;;;;4849562;29;20046;-87
2022/03/01 03:40:17;;;;;;;23.83;14.35;;;0.90;99.90;;;;;;4841304;29;20074;-87
2022/03/01 03:42:44;;;;;;;25.08;14.85;;;2.40;99.90;;;;;;4840780;29;20053;-88
2022/03/01 03:45:10;;;;;;;23.85;14.73;;;0.90;99.90;;;;;;4842496;29;20062;-87
2022/03/01 03:47:36;;;;;;;25.40;15.05;;;0.90;99.90;;;;;;4840672;29;20056;-87
2022/03/01 03:50:01;;;;;;;24.50;14.75;;;0.90;99.90;;;;;;4842779;29;20145;-86
2022/03/01 03:52:27;;;;;;;22.02;15.05;;;0.90;99.90;;;;;;4826128;29;20505;-88
2022/03/01 03:54:53;;;;;;;24.30;16.38;;;1.90;99.90;;;;;;4841852;29;20061;-88
2022/03/01 03:57:19;;;;;;;25.88;15.50;;;1.00;99.90;;;;;;4841602;29;20056;-88
2022/03/01 03:59:44;;;;;;;22.83;14.85;;;2.60;99.90;;;;;;4826886;29;20376;-88
2022/03/01 04:02:10;;;;;;;24.50;14.82;;;1.00;99.90;;;;;;4842913;29;20474;-87
2022/03/01 04:04:36;;;;;;;24.00;15.27;;;1.70;99.90;;;;;;4842228;29;20058;-88
2022/03/01 04:07:03;;;;;;;21.95;14.30;;;1.00;99.90;;;;;;4810578;29;20045;-88
2022/03/01 04:09:28;;;;;;;25.98;15.88;;;1.10;99.90;;;;;;4829796;29;20100;-88
2022/03/01 04:11:54;;;;;;;22.70;15.32;;;1.10;99.90;;;;;;4840870;29;20089;-89
2022/03/01 04:14:20;;;;;;;24.35;16.23;;;1.20;99.90;;;;;;4840420;29;20061;-88
2022/03/01 04:16:46;;;;;;;25.13;16.08;;;1.40;99.90;;;;;;4841854;29;20089;-87
2022/03/01 04:19:11;;;;;;;24.08;15.25;;;1.30;99.90;;;;;;4841338;29;20098;-87
2022/03/01 04:21:38;;;;;;;22.92;15.48;;;1.40;99.90;;;;;;4839962;29;20344;-87
2022/03/01 04:24:04;;;;;;;25.40;14.82;;;1.70;99.90;;;;;;4840449;29;20519;-88
2022/03/01 04:26:35;;;;;;;24.95;15.45;;;2.70;99.90;;;;;;4854398;29;20057;-88
2022/03/01 04:29:01;;;;;;;22.95;15.23;;;1.40;99.90;;;;;;4840553;29;20058;-87
2022/03/01 04:31:29;;;;;;;23.35;15.27;;;1.40;99.90;;;;;;4840379;29;20138;-87
2022/03/01 04:33:56;;;;;;;24.33;14.77;;;1.40;99.90;;;;;;4841802;29;20065;-88
2022/03/01 04:36:22;;;;;;;27.52;15.98;;;1.90;99.90;;;;;;4840087;29;20438;-88
2022/03/01 04:38:48;;;;;;;23.27;15.32;;;1.40;99.90;;;;;;4840627;29;20062;-89
2022/03/01 04:41:15;;;;;;;26.25;16.55;;;1.40;99.90;;;;;;4825325;29;20057;-89
2022/03/01 04:43:40;;;;;;;22.48;14.27;;;2.00;99.90;;;;;;4855753;29;20056;-88
2022/03/01 04:46:06;;;;;;;23.10;15.00;;;1.40;99.90;;;;;;4840288;29;20398;-87
2022/03/01 04:48:32;;;;;;;22.20;15.55;;;1.90;99.90;;;;;;4824427;29;20138;-88
2022/03/01 04:50:57;;;;;;;24.77;15.98;;;1.40;99.90;;;;;;4825361;29;20060;-89
2022/03/01 04:53:23;;;;;;;24.38;15.48;;;1.40;99.90;;;;;;4855780;29;20057;-88
2022/03/01 04:55:49;;;;;;;20.77;14.98;;;1.40;99.90;;;;;;4840373;29;20057;-89
2022/03/01 04:58:15;;;;;;;23.98;16.60;;;2.70;99.90;;;;;;4840170;29;20098;-88
2022/03/01 05:00:41;;;;;;;23.52;15.32;;;2.60;99.90;;;;;;4840218;29;20066;-89
2022/03/01 05:03:06;;;;;;;22.75;15.73;;;2.20;99.90;;;;;;4825721;29;20096;-89
2022/03/01 05:05:33;;;;;;;23.35;15.70;;;2.40;99.90;;;;;;4840890;29;20096;-88
2022/03/01 05:07:58;;;;;;;23.85;15.88;;;2.50;99.90;;;;;;4840193;29;20054;-87
2022/03/01 05:10:24;;;;;;;24.13;15.48;;;1.50;99.90;;;;;;4840184;29;20502;-88
2022/03/01 05:12:52;;;;;;;22.65;14.93;;;1.60;99.90;;;;;;4840271;29;20050;-88
2022/03/01 05:15:26;;;;;;;23.77;14.65;;;2.30;99.90;;;;;;4847081;29;20129;-87
2022/03/01 05:17:52;;;;;;;24.67;15.63;;;3.00;99.90;;;;;;4845342;29;20061;-88
2022/03/01 05:20:18;;;;;;;21.50;15.10;;;2.70;99.90;;;;;;4840248;29;20057;-88
2022/03/01 05:22:44;;;;;;;23.77;14.45;;;1.70;99.90;;;;;;4846712;29;20058;-87
2022/03/01 05:25:11;;;;;;;24.38;14.82;;;1.70;99.90;;;;;;4844742;29;20046;-88
2022/03/01 05:27:37;;;;;;;22.65;15.25;;;2.30;99.90;;;;;;4824644;29;20567;-88
2022/03/01 05:30:05;;;;;;;21.95;14.88;;;1.80;99.90;;;;;;4840919;29;20054;-87
2022/03/01 05:32:43;;;;;;;23.25;15.70;;;1.80;99.90;;;;;;4846384;29;20050;-88
2022/03/01 05:35:13;;;;;;;21.83;14.45;;;2.10;99.90;;;;;;4826581;29;20133;-89
2022/03/01 05:37:39;;;;;;;24.70;15.25;;;2.20;99.90;;;;;;4839716;29;20149;-88
2022/03/01 05:40:07;;;;;;;21.92;14.98;;;1.80;99.90;;;;;;4825028;29;20169;-89
2022/03/01 05:42:33;;;;;;;27.40;16.45;;;1.80;99.90;;;;;;4839307;29;20042;-88
2022/03/01 05:44:59;;;;;;;22.50;15.07;;;1.80;99.90;;;;;;4840402;29;20061;-89
2022/03/01 05:47:26;;;;;;;23.13;15.23;;;3.30;99.90;;;;;;4841854;29;20054;-88
2022/03/01 05:49:52;;;;;;;23.08;15.40;;;1.90;99.90;;;;;;4854954;29;20073;-88
2022/03/01 05:52:18;;;;;;;24.98;15.77;;;1.90;99.90;;;;;;4839891;29;20058;-88
2022/03/01 05:54:44;;;;;;;21.75;15.25;;;3.10;99.90;;;;;;4839391;29;20050;-89
2022/03/01 05:57:09;;;;;;;24.75;15.73;;;1.90;99.90;;;;;;4855434;29;20174;-88
2022/03/01 05:59:37;;;;;;;24.50;16.02;;;3.10;99.90;;;;;;4844630;29;20034;-87
2022/03/01 06:02:07;;;;;;;25.98;15.90;;;1.80;99.90;;;;;;4840127;29;20049;-91
2022/03/01 06:04:32;;;;;;;24.27;15.43;;;3.20;99.90;;;;;;4855385;29;20064;-85
2022/03/01 06:06:58;;;;;;;20.80;15.07;;;2.00;99.90;;;;;;4842890;29;20175;-87
2022/03/01 06:09:24;;;;;;;23.95;15.77;;;2.00;99.90;;;;;;4852352;29;20068;-87
2022/03/01 06:11:49;;;;;;;25.65;16.40;;;1.90;99.90;;;;;;4841532;29;20884;-85
2022/03/01 06:14:16;;;;;;;22.88;15.73;;;2.10;99.90;;;;;;4826730;29;20083;-86
2022/03/01 06:16:44;;;;;;;22.92;15.18;;;2.80;99.90;;;;;;4841469;29;20419;-87
2022/03/01 06:19:10;;;;;;;23.98;15.95;;;1.90;99.90;;;;;;4812567;29;20711;-86
2022/03/01 06:21:35;;;;;;;23.00;15.18;;;1.90;99.90;;;;;;4842972;29;20057;-87
2022/03/01 06:24:02;;;;;;;22.88;15.13;;;1.80;99.90;;;;;;4843549;29;20050;-85
2022/03/01 06:26:28;;;;;;;26.27;15.98;;;1.80;99.90;;;;;;4826920;29;20499;-87
2022/03/01 06:28:53;;;;;;;21.83;14.98;;;2.70;99.90;;;;;;4841852;29;20058;-86
2022/03/01 06:31:19;;;;;;;24.38;15.43;;;2.00;99.90;;;;;;4842283;29;20375;-87
2022/03/01 06:33:44;;;;;;;24.13;15.98;;;1.70;99.90;;;;;;4827043;29;20475;-88
2022/03/01 06:36:10;;;;;;;24.77;16.17;;;1.60;99.90;;;;;;4844650;29;20054;-86
2022/03/01 06:38:36;;;;;;;24.50;15.77;;;1.60;99.90;;;;;;4842988;29;20073;-85
2022/03/01 06:41:02;;;;;;;23.25;15.70;;;2.40;99.90;;;;;;4843184;29;20054;-87
2022/03/01 06:43:27;;;;;;;24.10;16.55;;;3.20;99.90;;;;;;4843624;29;20491;-88
2022/03/01 06:45:53;;;;;;;25.15;16.35;;;1.70;99.90;;;;;;4841259;29;20062;-86
2022/03/01 06:48:19;;;;;;;25.15;16.50;;;1.60;99.90;;;;;;4826554;29;20057;-88
2022/03/01 06:50:44;;;;;;;22.95;15.88;;;1.60;99.90;;;;;;4838142;29;20058;-88
2022/03/01 06:53:13;;;;;;;26.55;16.10;;;1.60;99.90;;;;;;4826422;29;20479;-86
2022/03/01 06:55:42;;;;;;;30.50;17.42;;;1.60;99.90;;;;;;4826244;29;20182;-87
2022/03/01 06:58:08;;;;;;;24.63;17.10;;;1.60;99.90;;;;;;4826597;29;20492;-86
2022/03/01 07:00:34;;;;;;;30.92;17.10;;;1.70;99.90;;;;;;4841340;29;20050;-87
2022/03/01 07:03:00;;;;;;;32.78;18.15;;;1.70;99.90;;;;;;4841037;29;20060;-88
2022/03/01 07:05:25;;;;;;;26.17;17.45;;;1.70;99.90;;;;;;4841214;29;20395;-88
2022/03/01 07:07:51;;;;;;;27.42;17.38;;;1.70;99.90;;;;;;4840779;29;20174;-87
2022/03/01 07:10:17;;;;;;;25.55;17.20;;;1.80;99.90;;;;;;4841163;29;20053;-87
2022/03/01 07:12:43;;;;;;;28.35;17.35;;;2.50;99.90;;;;;;4840486;29;20129;-87
2022/03/01 07:15:09;;;;;;;26.23;17.20;;;1.80;99.90;;;;;;4846485;29;20053;-87
2022/03/01 07:17:38;;;;;;;23.58;16.77;;;1.90;99.90;;;;;;4843973;29;20130;-85
2022/03/01 07:20:04;;;;;;;26.55;17.52;;;2.00;99.90;;;;;;4840747;29;20132;-87
2022/03/01 07:22:30;;;;;;;27.05;16.35;;;2.10;99.90;;;;;;4810550;29;20053;-87
2022/03/01 07:24:56;;;;;;;24.58;16.73;;;2.20;99.90;;;;;;4825153;29;20052;-87
2022/03/01 07:27:21;;;;;;;27.13;16.48;;;2.40;99.90;;;;;;4842358;29;20546;-87
2022/03/01 07:29:47;;;;;;;24.35;16.35;;;2.40;99.90;;;;;;4839909;29;20057;-84
2022/03/01 07:32:13;;;;;;;25.40;16.83;;;2.60;99.90;;;;;;4841554;29;20209;-87
2022/03/01 07:34:38;;;;;;;23.95;16.10;;;2.70;99.90;;;;;;4841924;29;20539;-86
2022/03/01 07:37:04;;;;;;;23.45;16.27;;;2.80;99.90;;;;;;4841403;29;20519;-87
2022/03/01 07:39:30;;;;;;;25.88;16.13;;;2.90;99.90;;;;;;4825227;29;20054;-87
2022/03/01 07:41:56;;;;;;;24.58;15.85;;;3.00;99.90;;;;;;4841057;29;20085;-87
2022/03/01 07:44:21;;;;;;;26.00;15.52;;;3.00;99.90;;;;;;4825578;29;20078;-87
2022/03/01 07:46:47;;;;;;;24.20;16.35;;;3.20;99.90;;;;;;4844373;29;20113;-87
2022/03/01 07:49:13;;;;;;;25.35;16.75;;;4.20;99.90;;;;;;4849504;29;20092;-87
2022/03/01 07:51:39;;;;;;;24.98;17.00;;;3.30;99.90;;;;;;4841361;29;20057;-87
2022/03/01 07:54:05;;;;;;;26.58;17.02;;;4.10;99.90;;;;;;4839676;29;20089;-88
2022/03/01 07:56:31;;;;;;;24.38;16.02;;;4.50;99.90;;;;;;4841556;29;20467;-88
2022/03/01 07:58:56;;;;;;;23.08;15.73;;;3.70;99.90;;;;;;4824673;29;20080;-87
2022/03/01 08:01:22;;;;;;;24.45;16.58;;;3.80;99.90;;;;;;4841401;29;20503;-86
2022/03/01 08:03:48;;;;;;;24.27;15.65;;;4.30;99.90;;;;;;4840508;29;20141;-86
2022/03/01 08:06:14;;;;;;;23.77;15.20;;;4.00;99.90;;;;;;4826268;29;20065;-87
2022/03/01 08:08:40;;;;;;;23.33;16.10;;;4.10;99.90;;;;;;4840448;29;20054;-87
2022/03/01 08:11:05;;;;;;;22.48;15.10;;;4.20;99.90;;;;;;4841658;29;20113;-86
2022/03/01 08:13:32;;;;;;;27.00;16.38;;;4.30;99.90;;;;;;4840461;29;20136;-87
2022/03/01 08:15:58;;;;;;;24.45;16.20;;;4.50;99.90;;;;;;4841374;29;20065;-87
2022/03/01 08:18:23;;;;;;;22.45;15.27;;;4.60;99.90;;;;;;4840510;29;20061;-87
2022/03/01 08:20:49;;;;;;;23.55;14.93;;;4.60;99.90;;;;;;4841693;29;20502;-86
2022/03/01 08:23:15;;;;;;;25.55;15.30;;;4.60;99.90;;;;;;4852018;29;20056;-85
2022/03/01 08:25:40;;;;;;;25.50;15.23;;;5.30;99.90;;;;;;4841368;29;20046;-88
2022/03/01 08:28:06;;;;;;;21.95;15.98;;;4.60;99.90;;;;;;4841118;29;20045;-87
2022/03/01 08:30:32;;;;;;;20.90;14.95;;;4.70;99.90;;;;;;4844337;29;20162;-87
2022/03/01 08:32:58;;;;;;;23.20;14.57;;;4.70;99.90;;;;;;4854583;29;20090;-87
2022/03/01 08:35:24;;;;;;;23.35;15.25;;;4.70;99.90;;;;;;4841105;29;20065;-87
2022/03/01 08:37:52;;;;;;;20.80;15.00;;;4.80;99.90;;;;;;4823995;29;20094;-87
2022/03/01 08:40:22;;;;;;;20.88;15.18;;;4.90;99.90;;;;;;4839359;29;20065;-86
2022/03/01 08:42:48;;;;;;;23.88;15.35;;;5.00;99.90;;;;;;4824739;29;20058;-83
2022/03/01 08:45:13;;;;;;;25.15;16.98;;;5.00;99.90;;;;;;4839107;29;20151;-87
2022/03/01 08:47:39;;;;;;;23.55;15.35;;;5.10;99.90;;;;;;4839183;29;20491;-85
2022/03/01 08:50:05;;;;;;;21.75;14.30;;;5.30;99.90;;;;;;4838648;29;20093;-86
2022/03/01 08:52:31;;;;;;;22.92;15.10;;;5.50;99.90;;;;;;4839356;29;20137;-88
2022/03/01 08:54:56;;;;;;;22.52;14.68;;;5.70;99.90;;;;;;4855202;29;20049;-86
2022/03/01 08:57:23;;;;;;;23.00;14.98;;;6.00;99.90;;;;;;4824111;29;20058;-86
2022/03/01 08:59:49;;;;;;;23.13;14.18;;;6.20;99.90;;;;;;4839242;29;20057;-85
2022/03/01 09:02:17;;;;;;;21.20;14.02;;;6.50;99.90;;;;;;4839095;29;20503;-86
2022/03/01 09:04:44;;;;;;;21.40;14.77;;;6.40;99.90;;;;;;4839265;29;20109;-86
2022/03/01 09:07:09;;;;;;;18.58;13.25;;;6.30;99.90;;;;;;4839795;29;20050;-87
2022/03/01 09:09:35;;;;;;;20.95;14.23;;;6.40;99.90;;;;;;4840492;29;20058;-87
2022/03/01 09:12:01;;;;;;;20.83;14.05;;;6.50;99.90;;;;;;4808609;29;20550;-87
2022/03/01 09:14:26;;;;;;;22.85;13.68;;;6.70;99.90;;;;;;4840393;29;20046;-86
2022/03/01 09:16:52;;;;;;;20.45;14.48;;;6.80;99.90;;;;;;4839933;29;20049;-82
2022/03/01 09:19:18;;;;;;;18.08;13.52;;;6.60;99.90;;;;;;4840448;29;20628;-86
2022/03/01 09:21:43;;;;;;;18.60;14.25;;;7.60;99.90;;;;;;4840897;29;20517;-87
2022/03/01 09:24:09;;;;;;;20.65;13.77;;;6.80;99.90;;;;;;4842253;29;20129;-89
2022/03/01 09:26:35;;;;;;;23.52;14.27;;;6.90;99.90;;;;;;4840969;29;20064;-86
2022/03/01 09:29:01;;;;;;;20.20;14.23;;;6.90;99.90;;;;;;4840532;29;20133;-87
2022/03/01 09:31:26;;;;;;;19.88;14.07;;;7.70;99.90;;;;;;4840927;29;20081;-87
2022/03/01 09:33:52;;;;;;;19.73;14.07;;;7.10;99.90;;;;;;4839813;29;20050;-88
2022/03/01 09:36:18;;;;;;;18.30;13.65;;;7.30;99.90;;;;;;4854532;29;20060;-88
2022/03/01 09:38:43;;;;;;;19.50;13.90;;;7.40;99.90;;;;;;4839788;29;20064;-88
2022/03/01 09:41:12;;;;;;;18.27;14.18;;;7.50;99.90;;;;;;4829353;29;20046;-88
2022/03/01 09:43:38;;;;;;;19.88;13.82;;;7.50;99.90;;;;;;4847394;29;20056;-89
2022/03/01 09:46:08;;;;;;;18.73;13.52;;;7.50;99.90;;;;;;4829715;29;20398;-88
2022/03/01 09:48:34;;;;;;;18.23;13.10;;;7.60;99.90;;;;;;4812951;29;20136;-88
2022/03/01 09:51:00;;;;;;;17.02;13.48;;;7.80;99.90;;;;;;4827204;29;20062;-89
2022/03/01 09:53:27;;;;;;;18.27;14.40;;;7.30;99.90;;;;;;4827707;29;20065;-88
2022/03/01 09:55:54;;;;;;;18.77;13.80;;;7.50;99.90;;;;;;4813078;29;20102;-84
2022/03/01 09:58:19;;;;;;;18.85;13.50;;;8.80;99.90;;;;;;4827614;29;20058;-89
2022/03/01 10:00:45;;;;;;;17.27;13.57;;;7.80;99.90;;;;;;4827833;29;20053;-88
2022/03/01 10:03:15;;;;;;;18.70;13.35;;;7.80;99.90;;;;;;4843825;29;20054;-86
2022/03/01 10:05:41;;;;;;;18.80;13.82;;;7.80;99.90;;;;;;4857627;29;20050;-84
2022/03/01 10:08:10;;;;;;;20.02;13.23;;;7.70;99.90;;;;;;4843075;29;20053;-87
2022/03/01 10:10:44;;;;;;;20.70;13.20;;;7.80;99.90;;;;;;4827638;29;20058;-86
2022/03/01 10:13:12;;;;;;;23.90;13.98;;;7.60;99.90;;;;;;4813082;29;20395;-88
2022/03/01 10:15:37;;;;;;;22.13;14.15;;;7.60;99.90;;;;;;4843121;29;20554;-87
2022/03/01 10:18:13;;;;;;;20.35;13.88;;;7.60;99.90;;;;;;4844481;29;20141;-88
2022/03/01 10:20:41;;;;;;;19.17;13.20;;;7.60;99.90;;;;;;4846704;29;20129;-89
2022/03/01 10:23:08;;;;;;;18.08;14.50;;;7.50;99.90;;;;;;4852005;29;20053;-86
2022/03/01 10:25:35;;;;;;;20.73;13.70;;;7.50;99.90;;;;;;4857667;29;20050;-88
2022/03/01 10:28:01;;;;;;;19.27;13.65;;;7.60;99.90;;;;;;4858388;29;20046;-84
2022/03/01 10:30:29;;;;;;;18.15;13.40;;;7.80;99.90;;;;;;4861257;29;20060;-88
2022/03/01 10:33:12;;;;;;;19.77;12.98;;;8.40;99.90;;;;;;4861398;29;20049;-87
2022/03/01 10:35:40;;;;;;;18.70;13.50;;;8.60;99.90;;;;;;4863130;29;20139;-88
2022/03/01 10:38:06;;;;;;;18.67;13.95;;;9.10;99.90;;;;;;4865238;29;20034;-86
2022/03/01 10:40:32;;;;;;;17.80;12.45;;;9.50;99.90;;;;;;4858263;29;20093;-88
2022/03/01 10:43:05;;;;;;;21.40;14.48;;;9.80;99.90;;;;;;4881801;29;20056;-87
2022/03/01 10:45:42;;;;;;;18.00;13.77;;;9.90;99.90;;;;;;4879273;29;20053;-84
2022/03/01 10:48:12;;;;;;;20.75;14.13;;;9.80;99.90;;;;;;4869420;29;20037;-84
2022/03/01 10:50:38;;;;;;;16.77;12.82;;;10.10;99.90;;;;;;4884100;29;20053;-87
2022/03/01 10:53:05;;;;;;;16.38;13.20;;;10.20;99.90;;;;;;4879294;29;20054;-84
2022/03/01 10:55:33;;;;;;;17.40;12.30;;;10.40;99.90;;;;;;4874645;29;20045;-89
2022/03/01 10:58:10;;;;;;;19.20;12.95;;;10.60;99.90;;;;;;4876974;29;20171;-87
2022/03/01 11:00:36;;;;;;;19.73;13.73;;;10.30;99.90;;;;;;4863111;29;20110;-86
2022/03/01 11:03:03;;;;;;;17.95;12.55;;;10.20;99.90;;;;;;4863301;29;20041;-87
2022/03/01 11:05:30;;;;;;;19.08;13.05;;;10.50;99.90;;;;;;4879969;29;20097;-88
2022/03/01 11:07:56;;;;;;;17.02;13.40;;;10.40;99.90;;;;;;4867101;29;20056;-87
2022/03/01 11:10:22;;;;;;;18.17;13.02;;;10.10;99.90;;;;;;4852201;29;20057;-86
2022/03/01 11:12:48;;;;;;;17.00;12.73;;;10.30;99.90;;;;;;4852913;29;20037;-86
2022/03/01 11:15:48;;;;;;;16.55;13.48;;;10.40;99.90;;;;;;4866249;29;20074;-88
2022/03/01 11:18:39;;;;;;;16.60;12.50;;;10.40;99.90;;;;;;4869728;29;20069;-90
2022/03/01 11:21:05;;;;;;;20.75;12.85;;;10.20;99.90;;;;;;4871822;29;20502;-86
2022/03/01 11:23:31;;;;;;;16.02;13.10;;;10.10;99.90;;;;;;4849710;29;20061;-94
2022/03/01 11:26:07;;;;;;;16.77;13.25;;;10.00;99.90;;;;;;4866144;29;20033;-86
2022/03/01 11:28:42;;;;;;;18.70;13.95;;;10.10;99.90;;;;;;4867540;29;20053;-93
2022/03/01 11:31:28;;;;;;;17.80;13.13;;;10.00;99.90;;;;;;4879661;29;20093;-84
2022/03/01 11:34:01;;;;;;;17.50;13.52;;;10.20;99.90;;;;;;4881070;29;20049;-88
2022/03/01 11:36:31;;;;;;;16.83;13.95;;;10.20;99.90;;;;;;4836577;29;20140;-93
2022/03/01 11:39:08;;;;;;;19.27;12.65;;;10.50;99.90;;;;;;4848587;29;20033;-94
2022/03/01 11:41:59;;;;;;;18.83;13.82;;;10.40;99.90;;;;;;4849054;29;20065;-93
2022/03/01 11:44:25;;;;;;;18.50;12.88;;;10.40;99.90;;;;;;4834774;29;20061;-92
2022/03/01 11:46:51;;;;;;;16.90;13.43;;;10.10;99.90;;;;;;4866690;29;20045;-95
2022/03/01 11:49:20;;;;;;;20.10;13.55;;;9.90;99.90;;;;;;4862135;29;20060;-94
2022/03/01 11:51:51;;;;;;;18.15;13.40;;;9.80;99.90;;;;;;4864513;29;20057;-93
2022/03/01 11:54:27;;;;;;;17.52;13.93;;;9.70;99.90;;;;;;4834791;29;20150;-93
2022/03/01 11:56:54;;;;;;;18.23;14.77;;;9.70;99.90;;;;;;4848388;29;20189;-94
2022/03/01 11:59:20;;;;;;;19.35;13.95;;;9.60;99.90;;;;;;4830526;29;20049;-93
2022/03/01 12:01:46;;;;;;;20.13;13.48;;;9.60;99.90;;;;;;4846060;29;20048;-93
2022/03/01 12:04:12;;;;;;;18.98;13.25;;;9.80;99.90;;;;;;4858537;29;20053;-86
2022/03/01 12:06:39;;;;;;;19.00;13.57;;;9.90;99.90;;;;;;4845103;29;20509;-89
2022/03/01 12:09:09;;;;;;;18.52;14.88;;;10.10;99.90;;;;;;4845641;29;20053;-88
2022/03/01 12:11:39;;;;;;;17.25;13.73;;;10.00;99.90;;;;;;4860235;29;20053;-91
2022/03/01 12:14:10;;;;;;;17.52;13.98;;;9.90;99.90;;;;;;4858525;29;20054;-91
2022/03/01 12:16:37;;;;;;;22.50;15.25;;;10.00;99.90;;;;;;4845859;29;20129;-89
2022/03/01 12:19:10;;;;;;;18.13;13.70;;;10.30;99.90;;;;;;4844755;29;20053;-91
2022/03/01 12:21:37;;;;;;;18.65;14.30;;;10.20;99.90;;;;;;4843020;29;20061;-90
2022/03/01 12:24:03;;;;;;;19.15;14.90;;;10.00;99.90;;;;;;4858392;29;20405;-91
2022/03/01 12:26:29;;;;;;;19.00;14.05;;;10.30;99.90;;;;;;4842425;29;20053;-88
2022/03/01 12:28:59;;;;;;;18.25;13.73;;;10.30;99.90;;;;;;4842227;29;20053;-89
2022/03/01 12:31:27;;;;;;;18.75;14.18;;;10.50;99.90;;;;;;4841790;29;20064;-87
2022/03/01 12:33:54;;;;;;;17.42;13.60;;;10.50;99.90;;;;;;4853866;29;20045;-90